createdAt,value
2022-10-06T00:00:09.793Z,984.71
2022-10-06T00:01:09.821Z,984.69
2022-10-06T00:02:09.653Z,984.74
2022-10-06T00:03:09.557Z,984.74
2022-10-06T00:04:09.983Z,984.78
2022-10-06T00:05:09.394Z,984.76
2022-10-06T00:06:09.312Z,984.77
2022-10-06T00:07:09.228Z,984.76
2022-10-06T00:08:10.401Z,984.80
2022-10-06T00:09:09.068Z,984.79
2022-10-06T00:10:08.991Z,984.78
2022-10-06T00:11:08.910Z,984.79
2022-10-06T00:12:08.827Z,984.77
2022-10-06T00:13:08.751Z,984.81
2022-10-06T00:14:08.667Z,984.79
2022-10-06T00:15:08.586Z,984.82
2022-10-06T00:16:08.538Z,984.82
2022-10-06T00:17:08.431Z,984.80
2022-10-06T00:18:08.347Z,984.84
2022-10-06T00:19:08.265Z,984.83
2022-10-06T00:20:08.189Z,984.83
2022-10-06T00:21:08.113Z,984.84
2022-10-06T00:22:08.024Z,984.86
2022-10-06T00:23:07.944Z,984.84
2022-10-06T00:24:07.864Z,984.86
2022-10-06T00:25:07.786Z,984.88
2022-10-06T00:26:07.705Z,984.89
2022-10-06T00:27:07.623Z,984.88
2022-10-06T00:28:07.594Z,984.85
2022-10-06T00:29:07.463Z,984.86
2022-10-06T00:30:07.383Z,984.90
2022-10-06T00:31:07.337Z,984.92
2022-10-06T00:32:07.219Z,984.85
2022-10-06T00:33:07.145Z,984.88
2022-10-06T00:34:07.059Z,984.94
2022-10-06T00:35:06.981Z,984.91
2022-10-06T00:36:06.896Z,984.90
2022-10-06T00:37:06.820Z,984.96
2022-10-06T00:38:06.741Z,984.99
2022-10-06T00:39:06.664Z,984.99
2022-10-06T00:40:06.578Z,984.93
2022-10-06T00:41:06.498Z,985.00
2022-10-06T00:42:06.419Z,984.99
2022-10-06T00:43:06.340Z,984.98
2022-10-06T00:44:06.256Z,984.98
2022-10-06T00:45:06.177Z,985.01
2022-10-06T00:46:06.140Z,985.01
2022-10-06T00:47:06.020Z,985.02
2022-10-06T00:48:05.937Z,985.01
2022-10-06T00:49:05.854Z,985.00
2022-10-06T00:50:05.803Z,984.98
2022-10-06T00:51:05.695Z,985.02
2022-10-06T00:52:05.614Z,985.00
2022-10-06T00:53:05.536Z,985.05
2022-10-06T00:54:05.471Z,985.05
2022-10-06T00:55:05.370Z,985.04
2022-10-06T00:56:05.291Z,985.01
2022-10-06T00:57:05.212Z,985.04
2022-10-06T00:58:05.132Z,985.04
2022-10-06T00:59:05.057Z,985.07
2022-10-06T01:00:04.974Z,985.02
2022-10-06T01:01:04.922Z,985.06
2022-10-06T01:02:04.811Z,985.08
2022-10-06T01:03:04.770Z,985.08
2022-10-06T01:04:04.651Z,985.14
2022-10-06T01:05:04.574Z,985.11
2022-10-06T01:06:04.494Z,985.13
2022-10-06T01:07:04.411Z,985.14
2022-10-06T01:08:04.330Z,985.14
2022-10-06T01:09:04.250Z,985.16
2022-10-06T01:10:04.169Z,985.17
2022-10-06T01:11:04.090Z,985.17
2022-10-06T01:12:04.004Z,985.20
2022-10-06T01:13:03.926Z,985.19
2022-10-06T01:14:03.844Z,985.20
2022-10-06T01:15:03.781Z,985.25
2022-10-06T01:16:03.732Z,985.22
2022-10-06T01:17:03.605Z,985.22
2022-10-06T01:18:03.522Z,985.21
2022-10-06T01:19:03.462Z,985.26
2022-10-06T01:20:03.368Z,985.23
2022-10-06T01:21:03.292Z,985.21
2022-10-06T01:22:03.250Z,985.23
2022-10-06T01:23:03.126Z,985.26
2022-10-06T01:24:03.040Z,985.20
2022-10-06T01:25:02.965Z,985.21
2022-10-06T01:26:02.882Z,985.25
2022-10-06T01:27:02.806Z,985.21
2022-10-06T01:28:02.766Z,985.23
2022-10-06T01:29:02.644Z,985.23
2022-10-06T01:30:02.562Z,985.22
2022-10-06T01:31:02.544Z,985.23
2022-10-06T01:32:02.399Z,985.24
2022-10-06T01:33:02.324Z,985.23
2022-10-06T01:34:02.236Z,985.21
2022-10-06T01:35:02.169Z,985.27
2022-10-06T01:36:02.087Z,985.25
2022-10-06T01:37:02.000Z,985.20
2022-10-06T01:38:01.917Z,985.21
2022-10-06T01:39:01.835Z,985.24
2022-10-06T01:40:01.757Z,985.21
2022-10-06T01:41:01.684Z,985.20
2022-10-06T01:42:01.601Z,985.17
2022-10-06T01:43:01.517Z,985.21
2022-10-06T01:44:01.437Z,985.23
2022-10-06T01:45:01.360Z,985.22
2022-10-06T01:46:01.297Z,985.25
2022-10-06T01:47:01.196Z,985.26
2022-10-06T01:48:01.118Z,985.24
2022-10-06T01:49:01.033Z,985.28
2022-10-06T01:50:00.952Z,985.32
2022-10-06T01:51:00.995Z,985.32
2022-10-06T01:52:00.793Z,985.31
2022-10-06T01:53:00.711Z,985.33
2022-10-06T01:54:00.631Z,985.34
2022-10-06T01:55:00.558Z,985.31
2022-10-06T01:56:00.468Z,985.37
2022-10-06T01:57:00.390Z,985.34
2022-10-06T01:58:00.314Z,985.34
2022-10-06T01:59:00.230Z,985.35
2022-10-06T02:00:00.149Z,985.36
2022-10-06T02:01:00.078Z,985.36
2022-10-06T02:02:00.087Z,985.36
2022-10-06T02:02:59.909Z,985.39
2022-10-06T02:03:59.854Z,985.40
2022-10-06T02:04:59.754Z,985.44
2022-10-06T02:05:59.746Z,985.43
2022-10-06T02:06:59.589Z,985.46
2022-10-06T02:07:59.516Z,985.47
2022-10-06T02:08:59.431Z,985.45
2022-10-06T02:09:59.348Z,985.45
2022-10-06T02:10:59.269Z,985.44
2022-10-06T02:11:59.192Z,985.46
2022-10-06T02:12:59.111Z,985.44
2022-10-06T02:13:59.025Z,985.45
2022-10-06T02:14:58.946Z,985.48
2022-10-06T02:15:58.905Z,985.48
2022-10-06T02:16:58.791Z,985.48
2022-10-06T02:17:58.708Z,985.50
2022-10-06T02:18:58.628Z,985.52
2022-10-06T02:19:58.546Z,985.50
2022-10-06T02:20:58.471Z,985.50
2022-10-06T02:21:58.384Z,985.52
2022-10-06T02:22:58.310Z,985.54
2022-10-06T02:23:58.227Z,985.51
2022-10-06T02:24:58.145Z,985.54
2022-10-06T02:25:58.068Z,985.54
2022-10-06T02:26:57.981Z,985.54
2022-10-06T02:27:57.945Z,985.56
2022-10-06T02:28:57.831Z,985.59
2022-10-06T02:29:57.744Z,985.56
2022-10-06T02:30:57.703Z,985.59
2022-10-06T02:31:57.584Z,985.60
2022-10-06T02:32:57.502Z,985.63
2022-10-06T02:33:57.423Z,985.65
2022-10-06T02:34:57.340Z,985.67
2022-10-06T02:35:57.269Z,985.63
2022-10-06T02:36:57.181Z,985.70
2022-10-06T02:37:57.103Z,985.69
2022-10-06T02:38:57.023Z,985.71
2022-10-06T02:39:56.943Z,985.72
2022-10-06T02:40:56.891Z,985.78
2022-10-06T02:41:56.785Z,985.78
2022-10-06T02:42:56.704Z,985.76
2022-10-06T02:43:56.622Z,985.76
2022-10-06T02:44:56.542Z,985.81
2022-10-06T02:45:56.461Z,985.80
2022-10-06T02:46:56.512Z,985.78
2022-10-06T02:47:56.301Z,985.80
2022-10-06T02:48:56.219Z,985.82
2022-10-06T02:49:56.144Z,985.83
2022-10-06T02:50:56.061Z,985.85
2022-10-06T02:51:55.980Z,985.84
2022-10-06T02:52:55.900Z,985.81
2022-10-06T02:53:55.815Z,985.82
2022-10-06T02:54:55.738Z,985.88
2022-10-06T02:55:55.660Z,985.88
2022-10-06T02:56:55.581Z,985.89
2022-10-06T02:57:55.496Z,985.84
2022-10-06T02:58:55.420Z,985.90
2022-10-06T02:59:55.341Z,985.90
2022-10-06T03:00:55.259Z,985.87
2022-10-06T03:01:55.497Z,985.86
2022-10-06T03:02:55.132Z,985.81
2022-10-06T03:03:55.026Z,985.81
2022-10-06T03:04:54.935Z,985.86
2022-10-06T03:05:54.857Z,985.88
2022-10-06T03:06:54.778Z,985.88
2022-10-06T03:07:54.694Z,985.78
2022-10-06T03:08:54.622Z,985.74
2022-10-06T03:09:54.535Z,985.86
2022-10-06T03:10:54.595Z,985.91
2022-10-06T03:11:54.377Z,985.90
2022-10-06T03:12:54.292Z,985.91
2022-10-06T03:13:54.213Z,985.90
2022-10-06T03:14:54.130Z,985.91
2022-10-06T03:15:54.091Z,985.89
2022-10-06T03:16:53.970Z,985.87
2022-10-06T03:17:53.896Z,985.93
2022-10-06T03:18:53.813Z,985.95
2022-10-06T03:19:53.731Z,985.95
2022-10-06T03:20:53.649Z,985.99
2022-10-06T03:21:53.570Z,985.93
2022-10-06T03:22:53.497Z,985.95
2022-10-06T03:23:53.411Z,985.94
2022-10-06T03:24:53.334Z,985.96
2022-10-06T03:25:53.256Z,986.02
2022-10-06T03:26:53.177Z,986.05
2022-10-06T03:27:53.093Z,986.07
2022-10-06T03:28:53.020Z,986.05
2022-10-06T03:29:52.935Z,986.11
2022-10-06T03:30:52.855Z,986.10
2022-10-06T03:31:52.777Z,986.09
2022-10-06T03:32:52.689Z,986.11
2022-10-06T03:33:52.614Z,986.21
2022-10-06T03:34:52.533Z,986.18
2022-10-06T03:35:52.464Z,986.25
2022-10-06T03:36:52.366Z,986.19
2022-10-06T03:37:52.304Z,986.22
2022-10-06T03:38:52.208Z,986.28
2022-10-06T03:39:52.128Z,986.25
2022-10-06T03:40:52.052Z,986.29
2022-10-06T03:41:51.966Z,986.24
2022-10-06T03:42:51.936Z,986.29
2022-10-06T03:43:51.808Z,986.37
2022-10-06T03:44:51.734Z,986.40
2022-10-06T03:45:51.651Z,986.42
2022-10-06T03:46:51.671Z,986.45
2022-10-06T03:47:51.490Z,986.45
2022-10-06T03:48:51.405Z,986.47
2022-10-06T03:49:51.327Z,986.50
2022-10-06T03:50:51.250Z,986.50
2022-10-06T03:51:51.182Z,986.51
2022-10-06T03:52:51.094Z,986.53
2022-10-06T03:53:51.010Z,986.50
2022-10-06T03:54:50.927Z,986.49
2022-10-06T03:55:50.850Z,986.54
2022-10-06T03:56:50.766Z,986.54
2022-10-06T03:57:50.689Z,986.53
2022-10-06T03:58:50.612Z,986.54
2022-10-06T03:59:50.528Z,986.54
2022-10-06T04:00:50.496Z,986.59
2022-10-06T04:01:50.394Z,986.60
2022-10-06T04:02:50.289Z,986.60
2022-10-06T04:03:50.208Z,986.60
2022-10-06T04:04:50.131Z,986.65
2022-10-06T04:05:50.054Z,986.62
2022-10-06T04:06:49.969Z,986.64
2022-10-06T04:07:49.896Z,986.66
2022-10-06T04:08:49.807Z,986.68
2022-10-06T04:09:49.730Z,986.70
2022-10-06T04:10:49.647Z,986.71
2022-10-06T04:11:49.572Z,986.71
2022-10-06T04:12:49.491Z,986.74
2022-10-06T04:13:49.410Z,986.80
2022-10-06T04:14:49.329Z,986.86
2022-10-06T04:15:49.251Z,986.88
2022-10-06T04:16:49.169Z,986.90
2022-10-06T04:17:49.090Z,986.93
2022-10-06T04:18:49.012Z,986.93
2022-10-06T04:19:48.934Z,986.93
2022-10-06T04:20:48.848Z,986.99
2022-10-06T04:21:48.769Z,986.99
2022-10-06T04:22:48.687Z,986.96
2022-10-06T04:23:48.611Z,986.99
2022-10-06T04:24:48.527Z,986.97
2022-10-06T04:25:51.434Z,986.97
2022-10-06T04:26:48.371Z,986.92
2022-10-06T04:27:48.288Z,986.95
2022-10-06T04:28:48.260Z,986.95
2022-10-06T04:29:48.128Z,986.94
2022-10-06T04:30:48.054Z,986.90
2022-10-06T04:31:47.999Z,986.94
2022-10-06T04:32:47.892Z,986.90
2022-10-06T04:33:47.816Z,986.92
2022-10-06T04:34:47.728Z,986.91
2022-10-06T04:35:47.653Z,986.96
2022-10-06T04:36:47.570Z,986.97
2022-10-06T04:37:47.492Z,986.97
2022-10-06T04:38:47.412Z,986.99
2022-10-06T04:39:47.332Z,986.94
2022-10-06T04:40:47.248Z,986.99
2022-10-06T04:41:47.477Z,986.97
2022-10-06T04:42:47.091Z,987.02
2022-10-06T04:43:47.014Z,987.03
2022-10-06T04:44:46.932Z,987.01
2022-10-06T04:45:46.877Z,986.99
2022-10-06T04:46:46.814Z,987.01
2022-10-06T04:47:46.690Z,987.02
2022-10-06T04:48:50.311Z,986.98
2022-10-06T04:49:46.531Z,987.00
2022-10-06T04:50:46.452Z,987.01
2022-10-06T04:51:46.374Z,987.01
2022-10-06T04:52:46.294Z,986.98
2022-10-06T04:53:46.213Z,987.04
2022-10-06T04:54:46.133Z,987.10
2022-10-06T04:55:46.052Z,987.11
2022-10-06T04:56:45.983Z,987.07
2022-10-06T04:57:45.893Z,987.12
2022-10-06T04:58:45.815Z,987.14
2022-10-06T04:59:45.740Z,987.13
2022-10-06T05:00:45.748Z,987.22
2022-10-06T05:01:45.659Z,987.19
2022-10-06T05:02:45.556Z,987.17
2022-10-06T05:03:45.422Z,987.22
2022-10-06T05:04:45.335Z,987.25
2022-10-06T05:05:45.259Z,987.27
2022-10-06T05:06:45.182Z,987.26
2022-10-06T05:07:45.104Z,987.27
2022-10-06T05:08:45.019Z,987.34
2022-10-06T05:09:44.939Z,987.31
2022-10-06T05:10:44.856Z,987.28
2022-10-06T05:11:44.779Z,987.26
2022-10-06T05:12:44.699Z,987.24
2022-10-06T05:13:44.616Z,987.27
2022-10-06T05:14:44.542Z,987.26
2022-10-06T05:15:44.460Z,987.31
2022-10-06T05:16:44.405Z,987.31
2022-10-06T05:17:44.298Z,987.35
2022-10-06T05:18:44.235Z,987.35
2022-10-06T05:19:44.146Z,987.37
2022-10-06T05:20:44.067Z,987.37
2022-10-06T05:21:43.988Z,987.39
2022-10-06T05:22:43.911Z,987.41
2022-10-06T05:23:43.821Z,987.43
2022-10-06T05:24:43.742Z,987.43
2022-10-06T05:25:43.667Z,987.45
2022-10-06T05:26:43.588Z,987.49
2022-10-06T05:27:43.510Z,987.48
2022-10-06T05:28:43.497Z,987.51
2022-10-06T05:29:43.350Z,987.55
2022-10-06T05:30:43.266Z,987.56
2022-10-06T05:31:43.263Z,987.60
2022-10-06T05:32:43.111Z,987.61
2022-10-06T05:33:43.036Z,987.62
2022-10-06T05:34:42.961Z,987.63
2022-10-06T05:35:42.871Z,987.65
2022-10-06T05:36:42.795Z,987.68
2022-10-06T05:37:42.714Z,987.71
2022-10-06T05:38:42.635Z,987.73
2022-10-06T05:39:42.555Z,987.72
2022-10-06T05:40:42.479Z,987.74
2022-10-06T05:41:42.401Z,987.81
2022-10-06T05:42:42.316Z,987.79
2022-10-06T05:43:42.241Z,987.85
2022-10-06T05:44:42.166Z,987.88
2022-10-06T05:45:42.128Z,987.87
2022-10-06T05:46:42.008Z,987.90
2022-10-06T05:47:41.925Z,987.93
2022-10-06T05:48:41.849Z,987.88
2022-10-06T05:49:41.767Z,987.95
2022-10-06T05:50:41.692Z,987.97
2022-10-06T05:51:41.607Z,987.99
2022-10-06T05:52:41.533Z,988.01
2022-10-06T05:53:41.446Z,988.04
2022-10-06T05:54:41.365Z,988.08
2022-10-06T05:55:41.293Z,988.04
2022-10-06T05:56:41.217Z,988.06
2022-10-06T05:57:41.135Z,988.04
2022-10-06T05:58:41.053Z,988.04
2022-10-06T05:59:40.976Z,988.04
2022-10-06T06:00:40.899Z,988.02
2022-10-06T06:01:40.878Z,988.08
2022-10-06T06:02:40.826Z,988.14
2022-10-06T06:03:40.661Z,988.15
2022-10-06T06:04:40.578Z,988.17
2022-10-06T06:05:40.502Z,988.19
2022-10-06T06:06:40.426Z,988.19
2022-10-06T06:07:40.345Z,988.20
2022-10-06T06:08:40.271Z,988.22
2022-10-06T06:09:40.185Z,988.21
2022-10-06T06:10:40.110Z,988.25
2022-10-06T06:11:40.034Z,988.27
2022-10-06T06:12:39.947Z,988.27
2022-10-06T06:13:39.876Z,988.29
2022-10-06T06:14:39.791Z,988.32
2022-10-06T06:15:39.712Z,988.32
2022-10-06T06:16:39.696Z,988.31
2022-10-06T06:17:39.559Z,988.35
2022-10-06T06:18:39.476Z,988.36
2022-10-06T06:19:39.404Z,988.36
2022-10-06T06:20:39.322Z,988.37
2022-10-06T06:21:39.245Z,988.39
2022-10-06T06:22:39.193Z,988.41
2022-10-06T06:23:39.086Z,988.39
2022-10-06T06:24:39.005Z,988.42
2022-10-06T06:25:38.924Z,988.48
2022-10-06T06:26:38.845Z,988.51
2022-10-06T06:27:38.771Z,988.49
2022-10-06T06:28:38.764Z,988.50
2022-10-06T06:29:38.611Z,988.52
2022-10-06T06:30:38.535Z,988.51
2022-10-06T06:31:38.562Z,988.54
2022-10-06T06:32:38.375Z,988.56
2022-10-06T06:33:38.300Z,988.58
2022-10-06T06:34:38.219Z,988.58
2022-10-06T06:35:38.141Z,988.59
2022-10-06T06:36:38.065Z,988.57
2022-10-06T06:37:37.982Z,988.58
2022-10-06T06:38:37.910Z,988.61
2022-10-06T06:39:37.826Z,988.59
2022-10-06T06:40:37.746Z,988.64
2022-10-06T06:41:37.679Z,988.66
2022-10-06T06:42:37.602Z,988.71
2022-10-06T06:43:37.513Z,988.72
2022-10-06T06:44:37.439Z,988.72
2022-10-06T06:45:37.507Z,988.73
2022-10-06T06:46:37.281Z,988.77
2022-10-06T06:47:37.198Z,988.79
2022-10-06T06:48:37.126Z,988.81
2022-10-06T06:49:37.040Z,988.83
2022-10-06T06:50:36.970Z,988.82
2022-10-06T06:51:36.889Z,988.87
2022-10-06T06:52:36.806Z,988.89
2022-10-06T06:53:36.744Z,988.89
2022-10-06T06:54:36.658Z,988.89
2022-10-06T06:55:36.581Z,988.91
2022-10-06T06:56:36.492Z,988.89
2022-10-06T06:57:36.415Z,988.93
2022-10-06T06:58:36.358Z,988.96
2022-10-06T06:59:36.256Z,988.97
2022-10-06T07:00:36.497Z,988.96
2022-10-06T07:01:36.190Z,988.99
2022-10-06T07:02:36.027Z,989.01
2022-10-06T07:03:56.714Z,989.05
2022-10-06T07:04:35.870Z,989.04
2022-10-06T07:05:35.790Z,989.09
2022-10-06T07:06:35.740Z,989.09
2022-10-06T07:07:35.630Z,989.09
2022-10-06T07:08:35.553Z,989.13
2022-10-06T07:09:35.477Z,989.15
2022-10-06T07:10:35.398Z,989.13
2022-10-06T07:11:35.319Z,989.14
2022-10-06T07:12:35.246Z,989.17
2022-10-06T07:13:35.161Z,989.19
2022-10-06T07:14:35.087Z,989.26
2022-10-06T07:15:35.047Z,989.27
2022-10-06T07:16:34.928Z,989.26
2022-10-06T07:17:34.850Z,989.26
2022-10-06T07:18:34.778Z,989.27
2022-10-06T07:19:34.691Z,989.26
2022-10-06T07:20:34.615Z,989.31
2022-10-06T07:21:34.535Z,989.33
2022-10-06T07:22:34.460Z,989.40
2022-10-06T07:23:34.382Z,989.38
2022-10-06T07:24:34.307Z,989.43
2022-10-06T07:25:34.226Z,989.43
2022-10-06T07:26:34.163Z,989.44
2022-10-06T07:27:34.067Z,989.46
2022-10-06T07:28:34.034Z,989.50
2022-10-06T07:29:33.916Z,989.53
2022-10-06T07:30:37.204Z,989.53
2022-10-06T07:31:33.860Z,989.53
2022-10-06T07:32:33.686Z,989.58
2022-10-06T07:33:33.604Z,989.60
2022-10-06T07:34:33.586Z,989.64
2022-10-06T07:35:33.442Z,989.66
2022-10-06T07:36:33.364Z,989.68
2022-10-06T07:37:33.288Z,989.67
2022-10-06T07:38:33.207Z,989.67
2022-10-06T07:39:33.134Z,989.70
2022-10-06T07:40:33.057Z,989.71
2022-10-06T07:41:32.972Z,989.75
2022-10-06T07:42:32.906Z,989.76
2022-10-06T07:43:32.822Z,989.79
2022-10-06T07:44:32.745Z,989.78
2022-10-06T07:45:32.753Z,989.78
2022-10-06T07:46:32.590Z,989.81
2022-10-06T07:47:32.511Z,989.83
2022-10-06T07:48:32.428Z,989.87
2022-10-06T07:49:32.351Z,989.88
2022-10-06T07:50:32.274Z,989.93
2022-10-06T07:51:32.198Z,989.93
2022-10-06T07:52:32.117Z,989.90
2022-10-06T07:53:32.040Z,989.94
2022-10-06T07:54:31.958Z,989.95
2022-10-06T07:55:31.883Z,989.99
2022-10-06T07:56:31.807Z,990.01
2022-10-06T07:57:31.725Z,990.02
2022-10-06T07:58:31.683Z,990.00
2022-10-06T07:59:31.569Z,990.06
2022-10-06T08:01:31.456Z,990.05
2022-10-06T08:02:34.728Z,990.09
2022-10-06T08:03:31.266Z,990.12
2022-10-06T08:04:31.180Z,990.13
2022-10-06T08:05:31.098Z,990.14
2022-10-06T08:06:31.025Z,990.16
2022-10-06T08:07:30.952Z,990.18
2022-10-06T08:08:30.869Z,990.22
2022-10-06T08:09:30.786Z,990.18
2022-10-06T08:10:30.711Z,990.19
2022-10-06T08:11:30.630Z,990.19
2022-10-06T08:12:30.558Z,990.25
2022-10-06T08:13:30.477Z,990.25
2022-10-06T08:14:30.400Z,990.25
2022-10-06T08:15:30.322Z,990.27
2022-10-06T08:16:30.544Z,990.30
2022-10-06T08:17:30.166Z,990.32
2022-10-06T08:18:47.054Z,990.33
2022-10-06T08:19:30.006Z,990.34
2022-10-06T08:20:29.930Z,990.38
2022-10-06T08:21:29.852Z,990.38
2022-10-06T08:22:29.771Z,990.36
2022-10-06T08:23:29.697Z,990.40
2022-10-06T08:24:37.823Z,990.39
2022-10-06T08:25:29.536Z,990.42
2022-10-06T08:26:29.466Z,990.44
2022-10-06T08:27:29.384Z,990.47
2022-10-06T08:28:29.369Z,990.50
2022-10-06T08:29:29.229Z,990.46
2022-10-06T08:30:29.149Z,990.51
2022-10-06T08:31:29.111Z,990.52
2022-10-06T08:32:28.995Z,990.52
2022-10-06T08:33:28.916Z,990.49
2022-10-06T08:34:28.836Z,990.52
2022-10-06T08:35:28.757Z,990.54
2022-10-06T08:36:31.877Z,990.55
2022-10-06T08:37:28.608Z,990.57
2022-10-06T08:38:28.547Z,990.58
2022-10-06T08:39:28.445Z,990.61
2022-10-06T08:40:28.370Z,990.63
2022-10-06T08:41:28.300Z,990.62
2022-10-06T08:42:28.218Z,990.69
2022-10-06T08:43:28.135Z,990.67
2022-10-06T08:44:28.056Z,990.67
2022-10-06T08:45:27.984Z,990.67
2022-10-06T08:46:27.902Z,990.72
2022-10-06T08:47:27.819Z,990.74
2022-10-06T08:48:27.745Z,990.73
2022-10-06T08:49:27.662Z,990.75
2022-10-06T08:50:27.590Z,990.75
2022-10-06T08:51:27.509Z,990.79
2022-10-06T08:52:27.435Z,990.78
2022-10-06T08:53:27.350Z,990.81
2022-10-06T08:54:27.275Z,990.82
2022-10-06T08:55:27.196Z,990.83
2022-10-06T08:56:27.119Z,990.86
2022-10-06T08:57:27.046Z,990.88
2022-10-06T08:58:26.969Z,990.89
2022-10-06T08:59:26.887Z,990.90
2022-10-06T09:00:26.808Z,990.92
2022-10-06T09:01:26.918Z,990.91
2022-10-06T09:02:26.745Z,990.93
2022-10-06T09:03:26.572Z,990.93
2022-10-06T09:04:26.494Z,990.95
2022-10-06T09:05:26.436Z,990.92
2022-10-06T09:06:26.338Z,990.93
2022-10-06T09:07:26.259Z,990.94
2022-10-06T09:08:26.183Z,990.92
2022-10-06T09:09:26.101Z,990.90
2022-10-06T09:10:26.028Z,990.92
2022-10-06T09:11:25.948Z,990.92
2022-10-06T09:12:25.870Z,990.95
2022-10-06T09:13:25.790Z,990.97
2022-10-06T09:14:25.716Z,990.99
2022-10-06T09:15:25.632Z,990.97
2022-10-06T09:16:25.604Z,990.97
2022-10-06T09:17:25.476Z,990.95
2022-10-06T09:18:25.401Z,991.00
2022-10-06T09:19:27.859Z,991.00
2022-10-06T09:20:25.249Z,991.03
2022-10-06T09:21:25.162Z,991.03
2022-10-06T09:22:25.085Z,991.05
2022-10-06T09:23:25.021Z,991.07
2022-10-06T09:24:24.946Z,991.05
2022-10-06T09:25:24.857Z,991.02
2022-10-06T09:26:24.786Z,991.05
2022-10-06T09:27:24.701Z,991.04
2022-10-06T09:28:24.661Z,991.04
2022-10-06T09:29:24.548Z,991.07
2022-10-06T09:30:24.481Z,991.05
2022-10-06T09:31:24.462Z,991.06
2022-10-06T09:32:24.312Z,991.05
2022-10-06T09:33:24.238Z,991.13
2022-10-06T09:34:24.160Z,991.14
2022-10-06T09:35:24.077Z,991.14
2022-10-06T09:36:23.998Z,991.16
2022-10-06T09:37:23.941Z,991.11
2022-10-06T09:38:23.847Z,991.16
2022-10-06T09:39:23.779Z,991.14
2022-10-06T09:40:23.701Z,991.17
2022-10-06T09:41:23.613Z,991.11
2022-10-06T09:42:23.535Z,991.15
2022-10-06T09:43:23.449Z,991.12
2022-10-06T09:44:23.377Z,991.15
2022-10-06T09:45:23.313Z,991.12
2022-10-06T09:46:23.223Z,991.14
2022-10-06T09:47:23.149Z,991.13
2022-10-06T09:48:24.938Z,991.11
2022-10-06T09:49:22.987Z,991.14
2022-10-06T09:50:22.912Z,991.09
2022-10-06T09:51:22.839Z,991.12
2022-10-06T09:52:22.760Z,991.14
2022-10-06T09:53:22.680Z,991.15
2022-10-06T09:54:22.606Z,991.17
2022-10-06T09:55:22.527Z,991.18
2022-10-06T09:56:22.454Z,991.17
2022-10-06T09:57:22.374Z,991.18
2022-10-06T09:58:22.302Z,991.19
2022-10-06T09:59:22.216Z,991.16
2022-10-06T10:00:22.135Z,991.22
2022-10-06T10:01:22.163Z,991.22
2022-10-06T10:02:21.982Z,991.19
2022-10-06T10:03:22.014Z,991.15
2022-10-06T10:04:22.061Z,991.19
2022-10-06T10:05:21.759Z,991.16
2022-10-06T10:06:21.685Z,991.16
2022-10-06T10:07:21.608Z,991.21
2022-10-06T10:08:21.569Z,991.20
2022-10-06T10:09:22.423Z,991.23
2022-10-06T10:10:21.380Z,991.25
2022-10-06T10:11:21.294Z,991.26
2022-10-06T10:12:21.230Z,991.22
2022-10-06T10:13:21.138Z,991.20
2022-10-06T10:14:21.051Z,991.15
2022-10-06T10:15:20.981Z,991.18
2022-10-06T10:16:20.955Z,991.15
2022-10-06T10:17:20.829Z,991.16
2022-10-06T10:18:20.753Z,991.17
2022-10-06T10:19:20.680Z,991.13
2022-10-06T10:20:20.593Z,991.14
2022-10-06T10:21:20.514Z,991.16
2022-10-06T10:22:20.448Z,991.14
2022-10-06T10:23:20.364Z,991.17
2022-10-06T10:24:20.288Z,991.13
2022-10-06T10:25:20.219Z,991.13
2022-10-06T10:26:20.142Z,991.15
2022-10-06T10:27:20.057Z,991.14
2022-10-06T10:28:20.028Z,991.13
2022-10-06T10:29:19.905Z,991.18
2022-10-06T10:30:19.832Z,991.22
2022-10-06T10:31:19.788Z,991.18
2022-10-06T10:32:19.678Z,991.21
2022-10-06T10:33:22.608Z,991.23
2022-10-06T10:34:24.304Z,991.22
2022-10-06T10:35:19.446Z,991.19
2022-10-06T10:36:19.376Z,991.26
2022-10-06T10:37:19.295Z,991.22
2022-10-06T10:38:19.217Z,991.21
2022-10-06T10:39:19.138Z,991.19
2022-10-06T10:40:19.066Z,991.17
2022-10-06T10:41:18.990Z,991.21
2022-10-06T10:42:18.916Z,991.19
2022-10-06T10:43:18.839Z,991.19
2022-10-06T10:44:18.760Z,991.19
2022-10-06T10:45:18.687Z,991.18
2022-10-06T10:46:18.635Z,991.19
2022-10-06T10:47:18.534Z,991.20
2022-10-06T10:48:18.601Z,991.19
2022-10-06T10:49:18.379Z,991.19
2022-10-06T10:50:18.304Z,991.18
2022-10-06T10:51:18.226Z,991.18
2022-10-06T10:52:18.150Z,991.16
2022-10-06T10:54:18.005Z,991.15
2022-10-06T10:55:17.918Z,991.19
2022-10-06T10:56:17.844Z,991.19
2022-10-06T10:57:17.770Z,991.18
2022-10-06T10:58:17.691Z,991.21
2022-10-06T10:59:17.614Z,991.20
2022-10-06T11:00:17.541Z,991.20
2022-10-06T11:01:17.550Z,991.18
2022-10-06T11:02:17.472Z,991.16
2022-10-06T11:03:17.310Z,991.15
2022-10-06T11:04:17.234Z,991.18
2022-10-06T11:05:17.162Z,991.20
2022-10-06T11:06:17.089Z,991.17
2022-10-06T11:07:17.009Z,991.18
2022-10-06T11:08:16.935Z,991.14
2022-10-06T11:09:16.860Z,991.18
2022-10-06T11:10:16.789Z,991.17
2022-10-06T11:11:16.708Z,991.16
2022-10-06T11:12:16.630Z,991.18
2022-10-06T11:13:16.559Z,991.17
2022-10-06T11:14:16.480Z,991.17
2022-10-06T11:15:16.403Z,991.17
2022-10-06T11:16:16.351Z,991.16
2022-10-06T11:17:16.254Z,991.15
2022-10-06T11:18:20.712Z,991.14
2022-10-06T11:19:16.104Z,991.19
2022-10-06T11:20:16.022Z,991.16
2022-10-06T11:21:15.958Z,991.18
2022-10-06T11:22:15.873Z,991.13
2022-10-06T11:23:15.800Z,991.17
2022-10-06T11:24:15.740Z,991.16
2022-10-06T11:25:15.662Z,991.14
2022-10-06T11:26:15.637Z,991.17
2022-10-06T11:27:15.496Z,991.17
2022-10-06T11:28:15.472Z,991.18
2022-10-06T11:29:15.340Z,991.17
2022-10-06T11:30:15.279Z,991.21
2022-10-06T11:31:20.185Z,991.19
2022-10-06T11:32:15.120Z,991.22
2022-10-06T11:33:15.041Z,991.23
2022-10-06T11:34:14.964Z,991.21
2022-10-06T11:35:14.889Z,991.23
2022-10-06T11:36:14.811Z,991.19
2022-10-06T11:37:14.736Z,991.21
2022-10-06T11:38:14.660Z,991.21
2022-10-06T11:39:14.583Z,991.21
2022-10-06T11:40:14.510Z,991.18
2022-10-06T11:41:14.438Z,991.19
2022-10-06T11:42:14.365Z,991.19
2022-10-06T11:43:14.279Z,991.16
2022-10-06T11:44:14.212Z,991.20
2022-10-06T11:45:14.130Z,991.14
2022-10-06T11:46:14.087Z,991.12
2022-10-06T11:47:13.978Z,991.08
2022-10-06T11:48:13.900Z,991.07
2022-10-06T11:49:13.831Z,991.07
2022-10-06T11:50:13.752Z,991.09
2022-10-06T11:51:13.678Z,991.07
2022-10-06T11:52:13.596Z,991.07
2022-10-06T11:53:13.528Z,991.04
2022-10-06T11:54:13.447Z,991.06
2022-10-06T11:55:13.374Z,991.02
2022-10-06T11:56:13.294Z,991.02
2022-10-06T11:57:13.223Z,991.08
2022-10-06T11:58:37.324Z,991.08
2022-10-06T11:59:13.070Z,991.08
2022-10-06T12:00:12.991Z,991.06
2022-10-06T12:01:12.919Z,991.04
2022-10-06T12:02:12.969Z,991.02
2022-10-06T12:03:12.796Z,991.01
2022-10-06T12:04:12.689Z,991.02
2022-10-06T12:06:12.537Z,991.00
2022-10-06T12:07:12.479Z,990.99
2022-10-06T12:08:12.389Z,991.01
2022-10-06T12:09:12.311Z,990.98
2022-10-06T12:10:12.234Z,990.94
2022-10-06T12:11:12.170Z,990.98
2022-10-06T12:12:12.087Z,990.98
2022-10-06T12:13:39.140Z,990.94
2022-10-06T12:15:31.842Z,990.94
2022-10-06T12:17:16.858Z,990.90
2022-10-06T12:18:11.635Z,990.88
2022-10-06T12:19:11.559Z,990.90
2022-10-06T12:20:11.487Z,990.83
2022-10-06T12:21:11.404Z,990.83
2022-10-06T12:22:11.339Z,990.79
2022-10-06T12:23:11.261Z,990.78
2022-10-06T12:24:11.219Z,990.77
2022-10-06T12:25:11.104Z,990.76
2022-10-06T12:26:11.028Z,990.76
2022-10-06T12:27:10.956Z,990.74
2022-10-06T12:28:11.025Z,990.74
2022-10-06T12:29:10.807Z,990.77
2022-10-06T12:30:10.729Z,990.79
2022-10-06T12:31:14.521Z,990.74
2022-10-06T12:32:10.581Z,990.72